sensor_id;sensor_type;location;lat;lon;timestamp;P1;durP1;ratioP1;P2;durP2;ratioP2
3070;SDS011;1546;47.208;9.038;2022-07-23T00:01:12;13.00;;;9.70;;
3070;SDS011;1546;47.208;9.038;2022-07-23T00:03:58;16.20;;;10.07;;
3070;SDS011;1546;47.208;9.038;2022-07-23T00:06:44;13.47;;;9.20;;
3070;SDS011;1546;47.208;9.038;2022-07-23T00:09:30;10.80;;;8.80;;
3070;SDS011;1546;47.208;9.038;2022-07-23T00:12:16;13.43;;;9.97;;
3070;SDS011;1546;47.208;9.038;2022-07-23T00:15:01;13.57;;;12.10;;
3070;SDS011;1546;47.208;9.038;2022-07-23T00:17:47;15.07;;;12.13;;
3070;SDS011;1546;47.208;9.038;2022-07-23T00:20:33;12.07;;;9.43;;
3070;SDS011;1546;47.208;9.038;2022-07-23T00:23:20;15.53;;;9.90;;
3070;SDS011;1546;47.208;9.038;2022-07-23T00:26:06;13.00;;;10.90;;
3070;SDS011;1546;47.208;9.038;2022-07-23T00:28:51;13.80;;;10.37;;
3070;SDS011;1546;47.208;9.038;2022-07-23T00:31:37;13.23;;;11.70;;
3070;SDS011;1546;47.208;9.038;2022-07-23T00:34:22;13.50;;;12.20;;
3070;SDS011;1546;47.208;9.038;2022-07-23T00:37:08;15.10;;;12.67;;
3070;SDS011;1546;47.208;9.038;2022-07-23T00:39:55;13.00;;;9.93;;
3070;SDS011;1546;47.208;9.038;2022-07-23T00:42:41;14.00;;;10.30;;
3070;SDS011;1546;47.208;9.038;2022-07-23T00:45:27;14.93;;;10.37;;
3070;SDS011;1546;47.208;9.038;2022-07-23T00:48:13;12.13;;;10.73;;
3070;SDS011;1546;47.208;9.038;2022-07-23T00:50:58;12.30;;;10.87;;
3070;SDS011;1546;47.208;9.038;2022-07-23T00:53:44;15.20;;;11.07;;
3070;SDS011;1546;47.208;9.038;2022-07-23T00:56:31;10.70;;;9.50;;
3070;SDS011;1546;47.208;9.038;2022-07-23T00:59:17;11.83;;;10.60;;
3070;SDS011;1546;47.208;9.038;2022-07-23T01:02:03;12.37;;;11.07;;
3070;SDS011;1546;47.208;9.038;2022-07-23T01:04:48;15.37;;;10.57;;
3070;SDS011;1546;47.208;9.038;2022-07-23T01:07:34;12.80;;;10.43;;
3070;SDS011;1546;47.208;9.038;2022-07-23T01:10:20;10.57;;;9.50;;
3070;SDS011;1546;47.208;9.038;2022-07-23T01:13:20;11.57;;;9.37;;
3070;SDS011;1546;47.208;9.038;2022-07-23T01:16:05;10.63;;;8.43;;
3070;SDS011;1546;47.208;9.038;2022-07-23T01:18:51;11.87;;;7.57;;
3070;SDS011;1546;47.208;9.038;2022-07-23T01:21:38;9.57;;;7.23;;
3070;SDS011;1546;47.208;9.038;2022-07-23T01:24:26;10.27;;;8.50;;
3070;SDS011;1546;47.208;9.038;2022-07-23T01:27:12;9.27;;;6.63;;
3070;SDS011;1546;47.208;9.038;2022-07-23T01:29:59;12.37;;;9.47;;
3070;SDS011;1546;47.208;9.038;2022-07-23T01:32:45;10.13;;;9.00;;
3070;SDS011;1546;47.208;9.038;2022-07-23T01:35:31;14.70;;;9.90;;
3070;SDS011;1546;47.208;9.038;2022-07-23T01:38:17;9.87;;;8.33;;
3070;SDS011;1546;47.208;9.038;2022-07-23T01:41:04;11.40;;;9.83;;
3070;SDS011;1546;47.208;9.038;2022-07-23T01:43:49;10.90;;;7.47;;
3070;SDS011;1546;47.208;9.038;2022-07-23T01:46:35;7.90;;;6.90;;
3070;SDS011;1546;47.208;9.038;2022-07-23T01:49:20;7.90;;;6.50;;
3070;SDS011;1546;47.208;9.038;2022-07-23T01:52:06;8.30;;;6.50;;
3070;SDS011;1546;47.208;9.038;2022-07-23T01:54:54;7.87;;;6.20;;
3070;SDS011;1546;47.208;9.038;2022-07-23T01:57:41;8.00;;;7.20;;
3070;SDS011;1546;47.208;9.038;2022-07-23T02:00:27;6.57;;;5.67;;
3070;SDS011;1546;47.208;9.038;2022-07-23T02:03:13;7.60;;;6.30;;
3070;SDS011;1546;47.208;9.038;2022-07-23T02:05:58;11.00;;;7.30;;
3070;SDS011;1546;47.208;9.038;2022-07-23T02:08:44;8.10;;;6.73;;
3070;SDS011;1546;47.208;9.038;2022-07-23T02:11:30;7.93;;;7.23;;
3070;SDS011;1546;47.208;9.038;2022-07-23T02:14:16;7.53;;;6.00;;
3070;SDS011;1546;47.208;9.038;2022-07-23T02:17:02;6.60;;;5.60;;
3070;SDS011;1546;47.208;9.038;2022-07-23T02:19:47;7.00;;;5.30;;
3070;SDS011;1546;47.208;9.038;2022-07-23T02:22:33;7.00;;;5.87;;
3070;SDS011;1546;47.208;9.038;2022-07-23T02:25:19;7.83;;;5.53;;
3070;SDS011;1546;47.208;9.038;2022-07-23T02:28:05;7.03;;;5.43;;
3070;SDS011;1546;47.208;9.038;2022-07-23T02:30:52;7.70;;;4.83;;
3070;SDS011;1546;47.208;9.038;2022-07-23T02:33:38;8.23;;;4.83;;
3070;SDS011;1546;47.208;9.038;2022-07-23T02:36:23;7.93;;;6.00;;
3070;SDS011;1546;47.208;9.038;2022-07-23T02:39:09;6.53;;;5.80;;
3070;SDS011;1546;47.208;9.038;2022-07-23T02:41:54;7.17;;;4.90;;
3070;SDS011;1546;47.208;9.038;2022-07-23T02:44:40;7.50;;;4.57;;
3070;SDS011;1546;47.208;9.038;2022-07-23T02:47:27;7.43;;;5.83;;
3070;SDS011;1546;47.208;9.038;2022-07-23T02:50:13;6.20;;;5.30;;
3070;SDS011;1546;47.208;9.038;2022-07-23T02:52:58;6.60;;;5.30;;
3070;SDS011;1546;47.208;9.038;2022-07-23T02:55:44;6.67;;;4.33;;
3070;SDS011;1546;47.208;9.038;2022-07-23T02:58:29;7.30;;;5.97;;
3070;SDS011;1546;47.208;9.038;2022-07-23T03:01:15;8.07;;;5.57;;
3070;SDS011;1546;47.208;9.038;2022-07-23T03:04:02;6.53;;;5.07;;
3070;SDS011;1546;47.208;9.038;2022-07-23T03:06:48;6.93;;;5.73;;
3070;SDS011;1546;47.208;9.038;2022-07-23T03:09:33;7.30;;;5.43;;
3070;SDS011;1546;47.208;9.038;2022-07-23T03:12:19;7.27;;;5.80;;
3070;SDS011;1546;47.208;9.038;2022-07-23T03:15:05;8.10;;;5.63;;
3070;SDS011;1546;47.208;9.038;2022-07-23T03:17:52;5.17;;;4.60;;
3070;SDS011;1546;47.208;9.038;2022-07-23T03:20:39;7.73;;;6.03;;
3070;SDS011;1546;47.208;9.038;2022-07-23T03:23:25;6.70;;;5.60;;
3070;SDS011;1546;47.208;9.038;2022-07-23T03:26:10;8.20;;;6.23;;
3070;SDS011;1546;47.208;9.038;2022-07-23T03:28:56;7.57;;;5.57;;
3070;SDS011;1546;47.208;9.038;2022-07-23T03:31:41;12.83;;;8.83;;
3070;SDS011;1546;47.208;9.038;2022-07-23T03:34:27;10.33;;;6.57;;
3070;SDS011;1546;47.208;9.038;2022-07-23T03:37:14;9.67;;;8.67;;
3070;SDS011;1546;47.208;9.038;2022-07-23T03:40:00;10.60;;;7.60;;
3070;SDS011;1546;47.208;9.038;2022-07-23T03:42:46;10.10;;;8.70;;
3070;SDS011;1546;47.208;9.038;2022-07-23T03:45:32;11.47;;;8.17;;
3070;SDS011;1546;47.208;9.038;2022-07-23T03:48:17;9.87;;;7.80;;
3070;SDS011;1546;47.208;9.038;2022-07-23T03:51:04;12.53;;;8.20;;
3070;SDS011;1546;47.208;9.038;2022-07-23T03:53:51;8.50;;;6.90;;
3070;SDS011;1546;47.208;9.038;2022-07-23T03:56:38;11.03;;;6.03;;
3070;SDS011;1546;47.208;9.038;2022-07-23T03:59:24;10.70;;;7.50;;
3070;SDS011;1546;47.208;9.038;2022-07-23T04:02:09;9.93;;;7.70;;
3070;SDS011;1546;47.208;9.038;2022-07-23T04:04:55;10.33;;;6.40;;
3070;SDS011;1546;47.208;9.038;2022-07-23T04:07:40;9.50;;;7.93;;
3070;SDS011;1546;47.208;9.038;2022-07-23T04:10:27;9.90;;;8.70;;
3070;SDS011;1546;47.208;9.038;2022-07-23T04:13:13;9.40;;;7.23;;
3070;SDS011;1546;47.208;9.038;2022-07-23T04:15:59;12.70;;;7.80;;
3070;SDS011;1546;47.208;9.038;2022-07-23T04:18:44;10.63;;;7.67;;
3070;SDS011;1546;47.208;9.038;2022-07-23T04:21:30;10.50;;;8.50;;
3070;SDS011;1546;47.208;9.038;2022-07-23T04:24:16;12.53;;;9.00;;
3070;SDS011;1546;47.208;9.038;2022-07-23T04:27:03;9.80;;;7.00;;
3070;SDS011;1546;47.208;9.038;2022-07-23T04:29:48;9.70;;;8.70;;
3070;SDS011;1546;47.208;9.038;2022-07-23T04:32:34;13.37;;;9.70;;
3070;SDS011;1546;47.208;9.038;2022-07-23T04:35:20;8.53;;;7.57;;
3070;SDS011;1546;47.208;9.038;2022-07-23T04:38:06;11.23;;;10.00;;
3070;SDS011;1546;47.208;9.038;2022-07-23T04:40:51;11.67;;;8.33;;
3070;SDS011;1546;47.208;9.038;2022-07-23T04:43:38;10.23;;;8.00;;
3070;SDS011;1546;47.208;9.038;2022-07-23T04:46:24;9.70;;;7.80;;
3070;SDS011;1546;47.208;9.038;2022-07-23T04:49:09;9.40;;;8.40;;
3070;SDS011;1546;47.208;9.038;2022-07-23T04:51:55;9.60;;;8.60;;
3070;SDS011;1546;47.208;9.038;2022-07-23T04:54:41;10.17;;;8.30;;
3070;SDS011;1546;47.208;9.038;2022-07-23T04:57:27;9.50;;;7.73;;
3070;SDS011;1546;47.208;9.038;2022-07-23T05:00:14;11.17;;;8.40;;
3070;SDS011;1546;47.208;9.038;2022-07-23T05:03:00;8.40;;;7.47;;
3070;SDS011;1546;47.208;9.038;2022-07-23T05:05:46;8.50;;;7.33;;
3070;SDS011;1546;47.208;9.038;2022-07-23T05:08:32;7.93;;;7.13;;
3070;SDS011;1546;47.208;9.038;2022-07-23T05:11:18;15.20;;;6.97;;
3070;SDS011;1546;47.208;9.038;2022-07-23T05:14:03;9.40;;;7.13;;
3070;SDS011;1546;47.208;9.038;2022-07-23T05:16:50;8.80;;;7.50;;
3070;SDS011;1546;47.208;9.038;2022-07-23T05:19:36;10.40;;;7.00;;
3070;SDS011;1546;47.208;9.038;2022-07-23T05:22:22;9.60;;;6.93;;
3070;SDS011;1546;47.208;9.038;2022-07-23T05:25:08;12.30;;;7.90;;
3070;SDS011;1546;47.208;9.038;2022-07-23T05:27:53;9.17;;;5.93;;
3070;SDS011;1546;47.208;9.038;2022-07-23T05:30:39;10.00;;;6.60;;
3070;SDS011;1546;47.208;9.038;2022-07-23T05:33:26;8.53;;;7.57;;
3070;SDS011;1546;47.208;9.038;2022-07-23T05:36:12;8.90;;;7.70;;
3070;SDS011;1546;47.208;9.038;2022-07-23T05:38:57;9.33;;;6.73;;
3070;SDS011;1546;47.208;9.038;2022-07-23T05:41:43;7.70;;;6.67;;
3070;SDS011;1546;47.208;9.038;2022-07-23T05:44:28;8.90;;;6.57;;
3070;SDS011;1546;47.208;9.038;2022-07-23T05:47:14;8.43;;;6.80;;
3070;SDS011;1546;47.208;9.038;2022-07-23T05:50:01;10.67;;;8.10;;
3070;SDS011;1546;47.208;9.038;2022-07-23T05:52:48;9.60;;;6.80;;
3070;SDS011;1546;47.208;9.038;2022-07-23T05:55:34;8.83;;;6.87;;
3070;SDS011;1546;47.208;9.038;2022-07-23T05:58:20;10.60;;;8.47;;
3070;SDS011;1546;47.208;9.038;2022-07-23T06:01:05;8.77;;;6.90;;
3070;SDS011;1546;47.208;9.038;2022-07-23T06:03:51;9.87;;;6.87;;
3070;SDS011;1546;47.208;9.038;2022-07-23T06:06:38;9.77;;;6.60;;
3070;SDS011;1546;47.208;9.038;2022-07-23T06:09:24;9.03;;;6.60;;
3070;SDS011;1546;47.208;9.038;2022-07-23T06:12:09;8.30;;;7.33;;
3070;SDS011;1546;47.208;9.038;2022-07-23T06:14:55;10.47;;;7.00;;
3070;SDS011;1546;47.208;9.038;2022-07-23T06:17:40;9.30;;;5.83;;
3070;SDS011;1546;47.208;9.038;2022-07-23T06:20:26;9.27;;;6.80;;
3070;SDS011;1546;47.208;9.038;2022-07-23T06:23:13;11.00;;;7.90;;
3070;SDS011;1546;47.208;9.038;2022-07-23T06:25:59;8.57;;;6.90;;
3070;SDS011;1546;47.208;9.038;2022-07-23T06:28:44;8.93;;;7.20;;
3070;SDS011;1546;47.208;9.038;2022-07-23T06:31:30;9.60;;;6.97;;
3070;SDS011;1546;47.208;9.038;2022-07-23T06:34:16;10.80;;;7.73;;
3070;SDS011;1546;47.208;9.038;2022-07-23T06:37:01;9.20;;;6.67;;
3070;SDS011;1546;47.208;9.038;2022-07-23T06:39:48;11.40;;;7.40;;
3070;SDS011;1546;47.208;9.038;2022-07-23T06:42:34;7.97;;;6.93;;
3070;SDS011;1546;47.208;9.038;2022-07-23T06:45:23;8.63;;;7.50;;
3070;SDS011;1546;47.208;9.038;2022-07-23T06:48:08;8.70;;;7.60;;
3070;SDS011;1546;47.208;9.038;2022-07-23T06:50:54;9.50;;;7.73;;
3070;SDS011;1546;47.208;9.038;2022-07-23T06:53:40;10.00;;;7.83;;
3070;SDS011;1546;47.208;9.038;2022-07-23T06:56:27;9.67;;;7.17;;
3070;SDS011;1546;47.208;9.038;2022-07-23T06:59:12;10.60;;;7.30;;
3070;SDS011;1546;47.208;9.038;2022-07-23T07:01:58;12.17;;;9.60;;
3070;SDS011;1546;47.208;9.038;2022-07-23T07:04:44;13.73;;;10.80;;
3070;SDS011;1546;47.208;9.038;2022-07-23T07:07:29;11.77;;;10.50;;
3070;SDS011;1546;47.208;9.038;2022-07-23T07:10:15;12.00;;;9.50;;
3070;SDS011;1546;47.208;9.038;2022-07-23T07:13:02;11.83;;;8.90;;
3070;SDS011;1546;47.208;9.038;2022-07-23T07:15:48;9.13;;;8.23;;
3070;SDS011;1546;47.208;9.038;2022-07-23T07:18:33;10.20;;;9.10;;
3070;SDS011;1546;47.208;9.038;2022-07-23T07:21:19;11.80;;;8.70;;
3070;SDS011;1546;47.208;9.038;2022-07-23T07:24:05;11.20;;;10.00;;
3070;SDS011;1546;47.208;9.038;2022-07-23T07:26:51;13.20;;;11.80;;
3070;SDS011;1546;47.208;9.038;2022-07-23T07:29:38;9.70;;;8.37;;
3070;SDS011;1546;47.208;9.038;2022-07-23T07:32:24;11.00;;;8.37;;
3070;SDS011;1546;47.208;9.038;2022-07-23T07:35:09;11.50;;;8.53;;
3070;SDS011;1546;47.208;9.038;2022-07-23T07:37:55;11.00;;;8.40;;
3070;SDS011;1546;47.208;9.038;2022-07-23T07:40:41;10.30;;;9.00;;
3070;SDS011;1546;47.208;9.038;2022-07-23T07:43:26;11.60;;;9.47;;
3070;SDS011;1546;47.208;9.038;2022-07-23T07:46:13;10.07;;;8.93;;
3070;SDS011;1546;47.208;9.038;2022-07-23T07:48:59;13.17;;;9.40;;
3070;SDS011;1546;47.208;9.038;2022-07-23T07:51:45;13.00;;;8.40;;
3070;SDS011;1546;47.208;9.038;2022-07-23T07:54:31;13.30;;;7.77;;
3070;SDS011;1546;47.208;9.038;2022-07-23T07:57:16;10.77;;;8.40;;
3070;SDS011;1546;47.208;9.038;2022-07-23T08:00:02;11.00;;;7.70;;
3070;SDS011;1546;47.208;9.038;2022-07-23T08:02:50;9.33;;;7.03;;
3070;SDS011;1546;47.208;9.038;2022-07-23T08:05:38;9.30;;;8.30;;
3070;SDS011;1546;47.208;9.038;2022-07-23T08:08:23;14.77;;;8.33;;
3070;SDS011;1546;47.208;9.038;2022-07-23T08:11:09;11.90;;;9.17;;
3070;SDS011;1546;47.208;9.038;2022-07-23T08:13:55;10.03;;;8.40;;
3070;SDS011;1546;47.208;9.038;2022-07-23T08:16:40;11.63;;;8.37;;
3070;SDS011;1546;47.208;9.038;2022-07-23T08:19:27;9.90;;;7.47;;
3070;SDS011;1546;47.208;9.038;2022-07-23T08:22:13;10.77;;;8.23;;
3070;SDS011;1546;47.208;9.038;2022-07-23T08:24:58;9.33;;;8.33;;
3070;SDS011;1546;47.208;9.038;2022-07-23T08:27:44;10.30;;;8.10;;
3070;SDS011;1546;47.208;9.038;2022-07-23T08:30:30;9.23;;;8.20;;
3070;SDS011;1546;47.208;9.038;2022-07-23T08:33:17;14.23;;;8.87;;
3070;SDS011;1546;47.208;9.038;2022-07-23T08:36:05;10.33;;;8.80;;
3070;SDS011;1546;47.208;9.038;2022-07-23T08:38:51;12.80;;;8.07;;
3070;SDS011;1546;47.208;9.038;2022-07-23T08:41:38;12.80;;;9.00;;
3070;SDS011;1546;47.208;9.038;2022-07-23T08:44:25;10.13;;;8.60;;
3070;SDS011;1546;47.208;9.038;2022-07-23T08:47:11;8.50;;;7.60;;
3070;SDS011;1546;47.208;9.038;2022-07-23T08:49:56;10.70;;;7.77;;
3070;SDS011;1546;47.208;9.038;2022-07-23T08:52:44;12.93;;;9.87;;
3070;SDS011;1546;47.208;9.038;2022-07-23T08:55:30;11.20;;;9.07;;
3070;SDS011;1546;47.208;9.038;2022-07-23T08:58:16;11.30;;;8.30;;
3070;SDS011;1546;47.208;9.038;2022-07-23T09:01:02;12.50;;;9.53;;
3070;SDS011;1546;47.208;9.038;2022-07-23T09:03:48;10.47;;;8.83;;
3070;SDS011;1546;47.208;9.038;2022-07-23T09:06:34;11.33;;;10.07;;
3070;SDS011;1546;47.208;9.038;2022-07-23T09:09:24;10.53;;;9.23;;
3070;SDS011;1546;47.208;9.038;2022-07-23T09:12:13;11.17;;;9.27;;
3070;SDS011;1546;47.208;9.038;2022-07-23T09:15:03;15.17;;;12.40;;
3070;SDS011;1546;47.208;9.038;2022-07-23T09:17:49;11.33;;;9.40;;
3070;SDS011;1546;47.208;9.038;2022-07-23T09:20:35;9.83;;;8.73;;
3070;SDS011;1546;47.208;9.038;2022-07-23T09:23:22;11.10;;;9.00;;
3070;SDS011;1546;47.208;9.038;2022-07-23T09:26:28;10.50;;;8.93;;
3070;SDS011;1546;47.208;9.038;2022-07-23T09:29:19;10.17;;;8.63;;
3070;SDS011;1546;47.208;9.038;2022-07-23T09:32:06;8.63;;;7.50;;
3070;SDS011;1546;47.208;9.038;2022-07-23T09:34:58;8.10;;;6.80;;
3070;SDS011;1546;47.208;9.038;2022-07-23T09:37:45;7.70;;;6.70;;
3070;SDS011;1546;47.208;9.038;2022-07-23T09:40:46;9.97;;;7.27;;
3070;SDS011;1546;47.208;9.038;2022-07-23T09:43:33;10.37;;;8.13;;
3070;SDS011;1546;47.208;9.038;2022-07-23T09:46:20;8.63;;;7.20;;
3070;SDS011;1546;47.208;9.038;2022-07-23T09:49:15;8.07;;;6.87;;
3070;SDS011;1546;47.208;9.038;2022-07-23T09:52:02;14.30;;;7.30;;
3070;SDS011;1546;47.208;9.038;2022-07-23T09:54:48;10.60;;;7.13;;
3070;SDS011;1546;47.208;9.038;2022-07-23T09:57:44;9.90;;;7.67;;
3070;SDS011;1546;47.208;9.038;2022-07-23T10:00:32;10.30;;;8.30;;
3070;SDS011;1546;47.208;9.038;2022-07-23T10:03:17;9.80;;;7.67;;
3070;SDS011;1546;47.208;9.038;2022-07-23T10:06:05;7.90;;;6.60;;
3070;SDS011;1546;47.208;9.038;2022-07-23T10:08:52;6.30;;;5.70;;
3070;SDS011;1546;47.208;9.038;2022-07-23T10:11:42;6.17;;;5.20;;
3070;SDS011;1546;47.208;9.038;2022-07-23T10:14:27;6.97;;;5.40;;
3070;SDS011;1546;47.208;9.038;2022-07-23T10:17:19;5.67;;;4.50;;
3070;SDS011;1546;47.208;9.038;2022-07-23T10:20:04;5.73;;;4.67;;
3070;SDS011;1546;47.208;9.038;2022-07-23T10:22:54;6.53;;;4.93;;
3070;SDS011;1546;47.208;9.038;2022-07-23T10:25:46;8.23;;;6.17;;
3070;SDS011;1546;47.208;9.038;2022-07-23T10:28:56;7.23;;;6.20;;
3070;SDS011;1546;47.208;9.038;2022-07-23T10:31:54;8.37;;;6.43;;
3070;SDS011;1546;47.208;9.038;2022-07-23T10:34:47;8.90;;;6.80;;
3070;SDS011;1546;47.208;9.038;2022-07-23T10:37:41;8.33;;;6.83;;
3070;SDS011;1546;47.208;9.038;2022-07-23T10:40:30;8.00;;;7.03;;
3070;SDS011;1546;47.208;9.038;2022-07-23T10:43:16;9.90;;;7.20;;
3070;SDS011;1546;47.208;9.038;2022-07-23T10:49:25;9.20;;;6.23;;
3070;SDS011;1546;47.208;9.038;2022-07-23T10:52:17;7.40;;;6.37;;
3070;SDS011;1546;47.208;9.038;2022-07-23T11:01:32;8.00;;;6.60;;
3070;SDS011;1546;47.208;9.038;2022-07-23T11:04:18;7.43;;;6.63;;
3070;SDS011;1546;47.208;9.038;2022-07-23T11:07:07;7.40;;;6.53;;
3070;SDS011;1546;47.208;9.038;2022-07-23T11:09:56;8.50;;;6.80;;
3070;SDS011;1546;47.208;9.038;2022-07-23T11:12:42;11.30;;;7.13;;
3070;SDS011;1546;47.208;9.038;2022-07-23T11:15:27;9.63;;;7.00;;
3070;SDS011;1546;47.208;9.038;2022-07-23T11:18:13;7.57;;;6.77;;
3070;SDS011;1546;47.208;9.038;2022-07-23T11:21:00;9.00;;;7.17;;
3070;SDS011;1546;47.208;9.038;2022-07-23T11:24:25;8.10;;;6.87;;
3070;SDS011;1546;47.208;9.038;2022-07-23T11:27:12;9.50;;;7.00;;
3070;SDS011;1546;47.208;9.038;2022-07-23T11:29:57;8.23;;;6.63;;
3070;SDS011;1546;47.208;9.038;2022-07-23T11:32:43;7.20;;;6.50;;
3070;SDS011;1546;47.208;9.038;2022-07-23T11:35:28;9.60;;;7.40;;
3070;SDS011;1546;47.208;9.038;2022-07-23T11:38:15;8.97;;;6.77;;
3070;SDS011;1546;47.208;9.038;2022-07-23T11:41:02;9.40;;;7.40;;
3070;SDS011;1546;47.208;9.038;2022-07-23T11:43:49;9.20;;;6.93;;
3070;SDS011;1546;47.208;9.038;2022-07-23T11:46:35;8.67;;;6.77;;
3070;SDS011;1546;47.208;9.038;2022-07-23T11:49:21;9.33;;;6.17;;
3070;SDS011;1546;47.208;9.038;2022-07-23T11:52:07;8.70;;;7.10;;
3070;SDS011;1546;47.208;9.038;2022-07-23T11:54:55;8.17;;;6.33;;
3070;SDS011;1546;47.208;9.038;2022-07-23T11:57:43;8.67;;;6.97;;
3070;SDS011;1546;47.208;9.038;2022-07-23T12:00:30;7.27;;;6.30;;
3070;SDS011;1546;47.208;9.038;2022-07-23T12:03:16;8.50;;;6.70;;
3070;SDS011;1546;47.208;9.038;2022-07-23T12:06:02;7.87;;;7.00;;
3070;SDS011;1546;47.208;9.038;2022-07-23T12:08:48;12.67;;;7.13;;
3070;SDS011;1546;47.208;9.038;2022-07-23T12:11:34;7.80;;;6.60;;
3070;SDS011;1546;47.208;9.038;2022-07-23T12:14:19;6.97;;;6.27;;
3070;SDS011;1546;47.208;9.038;2022-07-23T12:17:10;9.30;;;6.53;;
3070;SDS011;1546;47.208;9.038;2022-07-23T12:19:55;8.80;;;7.10;;
3070;SDS011;1546;47.208;9.038;2022-07-23T12:22:43;8.20;;;6.83;;
3070;SDS011;1546;47.208;9.038;2022-07-23T12:25:31;10.13;;;7.50;;
3070;SDS011;1546;47.208;9.038;2022-07-23T12:28:18;8.93;;;6.97;;
3070;SDS011;1546;47.208;9.038;2022-07-23T12:31:05;9.83;;;6.30;;
3070;SDS011;1546;47.208;9.038;2022-07-23T12:33:52;8.83;;;7.60;;
3070;SDS011;1546;47.208;9.038;2022-07-23T12:36:37;7.60;;;6.70;;
3070;SDS011;1546;47.208;9.038;2022-07-23T12:39:30;7.70;;;6.90;;
3070;SDS011;1546;47.208;9.038;2022-07-23T12:42:16;7.63;;;6.57;;
3070;SDS011;1546;47.208;9.038;2022-07-23T12:45:04;7.70;;;6.70;;
3070;SDS011;1546;47.208;9.038;2022-07-23T12:51:07;7.93;;;6.27;;
3070;SDS011;1546;47.208;9.038;2022-07-23T12:53:53;7.97;;;7.17;;
3070;SDS011;1546;47.208;9.038;2022-07-23T12:56:43;8.70;;;7.03;;
3070;SDS011;1546;47.208;9.038;2022-07-23T12:59:30;8.80;;;6.43;;
3070;SDS011;1546;47.208;9.038;2022-07-23T13:02:15;7.70;;;6.97;;
3070;SDS011;1546;47.208;9.038;2022-07-23T13:05:01;8.77;;;6.80;;
3070;SDS011;1546;47.208;9.038;2022-07-23T13:07:48;8.97;;;6.30;;
3070;SDS011;1546;47.208;9.038;2022-07-23T13:10:34;8.37;;;6.70;;
3070;SDS011;1546;47.208;9.038;2022-07-23T13:13:20;8.80;;;7.83;;
3070;SDS011;1546;47.208;9.038;2022-07-23T13:16:07;7.53;;;6.73;;
3070;SDS011;1546;47.208;9.038;2022-07-23T13:18:52;7.47;;;6.20;;
3070;SDS011;1546;47.208;9.038;2022-07-23T13:21:40;8.60;;;7.70;;
3070;SDS011;1546;47.208;9.038;2022-07-23T13:24:27;9.53;;;7.30;;
3070;SDS011;1546;47.208;9.038;2022-07-23T13:27:13;8.87;;;7.37;;
3070;SDS011;1546;47.208;9.038;2022-07-23T13:29:58;7.60;;;6.40;;
3070;SDS011;1546;47.208;9.038;2022-07-23T13:32:44;8.83;;;7.93;;
3070;SDS011;1546;47.208;9.038;2022-07-23T13:35:29;7.40;;;6.67;;
3070;SDS011;1546;47.208;9.038;2022-07-23T13:38:15;10.47;;;8.00;;
3070;SDS011;1546;47.208;9.038;2022-07-23T13:41:03;8.53;;;7.63;;
3070;SDS011;1546;47.208;9.038;2022-07-23T13:43:49;8.60;;;6.87;;
3070;SDS011;1546;47.208;9.038;2022-07-23T13:46:34;7.13;;;6.43;;
3070;SDS011;1546;47.208;9.038;2022-07-23T13:49:20;8.83;;;7.93;;
3070;SDS011;1546;47.208;9.038;2022-07-23T13:52:05;8.40;;;7.00;;
3070;SDS011;1546;47.208;9.038;2022-07-23T13:54:51;6.97;;;6.27;;
3070;SDS011;1546;47.208;9.038;2022-07-23T13:57:38;8.00;;;7.20;;
3070;SDS011;1546;47.208;9.038;2022-07-23T14:00:24;8.37;;;7.53;;
3070;SDS011;1546;47.208;9.038;2022-07-23T14:03:09;9.13;;;7.47;;
3070;SDS011;1546;47.208;9.038;2022-07-23T14:05:55;9.00;;;8.10;;
3070;SDS011;1546;47.208;9.038;2022-07-23T14:08:41;9.47;;;7.80;;
3070;SDS011;1546;47.208;9.038;2022-07-23T14:11:26;8.27;;;7.40;;
3070;SDS011;1546;47.208;9.038;2022-07-23T14:14:15;9.97;;;7.93;;
3070;SDS011;1546;47.208;9.038;2022-07-23T14:17:02;8.53;;;7.20;;
3070;SDS011;1546;47.208;9.038;2022-07-23T14:19:47;8.20;;;7.40;;
3070;SDS011;1546;47.208;9.038;2022-07-23T14:22:33;11.70;;;8.30;;
3070;SDS011;1546;47.208;9.038;2022-07-23T14:25:19;9.17;;;7.20;;
3070;SDS011;1546;47.208;9.038;2022-07-23T14:28:04;8.53;;;7.30;;
3070;SDS011;1546;47.208;9.038;2022-07-23T14:30:52;8.80;;;7.90;;
3070;SDS011;1546;47.208;9.038;2022-07-23T14:33:37;8.90;;;8.00;;
3070;SDS011;1546;47.208;9.038;2022-07-23T14:36:22;9.13;;;7.67;;
3070;SDS011;1546;47.208;9.038;2022-07-23T14:39:08;9.30;;;8.13;;
3070;SDS011;1546;47.208;9.038;2022-07-23T14:41:55;9.37;;;8.40;;
3070;SDS011;1546;47.208;9.038;2022-07-23T14:44:40;8.50;;;7.70;;
3070;SDS011;1546;47.208;9.038;2022-07-23T14:47:28;8.50;;;7.27;;
3070;SDS011;1546;47.208;9.038;2022-07-23T14:50:13;9.23;;;8.17;;
3070;SDS011;1546;47.208;9.038;2022-07-23T14:52:59;9.90;;;7.87;;
3070;SDS011;1546;47.208;9.038;2022-07-23T14:55:44;9.60;;;8.00;;
3070;SDS011;1546;47.208;9.038;2022-07-23T14:58:30;7.63;;;6.87;;
3070;SDS011;1546;47.208;9.038;2022-07-23T15:01:16;9.37;;;8.37;;
3070;SDS011;1546;47.208;9.038;2022-07-23T15:04:03;10.67;;;9.57;;
3070;SDS011;1546;47.208;9.038;2022-07-23T15:06:49;10.80;;;9.80;;
3070;SDS011;1546;47.208;9.038;2022-07-23T15:09:35;8.93;;;8.03;;
3070;SDS011;1546;47.208;9.038;2022-07-23T15:12:20;10.20;;;7.70;;
3070;SDS011;1546;47.208;9.038;2022-07-23T15:15:06;8.77;;;7.90;;
3070;SDS011;1546;47.208;9.038;2022-07-23T15:17:52;10.27;;;7.90;;
3070;SDS011;1546;47.208;9.038;2022-07-23T15:20:39;11.23;;;9.93;;
3070;SDS011;1546;47.208;9.038;2022-07-23T15:23:24;10.53;;;8.80;;
3070;SDS011;1546;47.208;9.038;2022-07-23T15:26:10;9.43;;;8.37;;
3070;SDS011;1546;47.208;9.038;2022-07-23T15:28:56;10.83;;;8.10;;
3070;SDS011;1546;47.208;9.038;2022-07-23T15:31:43;9.23;;;8.33;;
3070;SDS011;1546;47.208;9.038;2022-07-23T15:34:28;11.50;;;8.43;;
3070;SDS011;1546;47.208;9.038;2022-07-23T15:37:15;10.60;;;8.73;;
3070;SDS011;1546;47.208;9.038;2022-07-23T15:40:01;10.50;;;9.30;;
3070;SDS011;1546;47.208;9.038;2022-07-23T15:42:49;10.10;;;8.40;;
3070;SDS011;1546;47.208;9.038;2022-07-23T15:45:35;9.97;;;8.70;;
3070;SDS011;1546;47.208;9.038;2022-07-23T15:48:21;11.10;;;8.60;;
3070;SDS011;1546;47.208;9.038;2022-07-23T15:51:06;12.70;;;9.30;;
3070;SDS011;1546;47.208;9.038;2022-07-23T15:53:53;10.50;;;9.13;;
3070;SDS011;1546;47.208;9.038;2022-07-23T15:56:39;9.13;;;8.17;;
3070;SDS011;1546;47.208;9.038;2022-07-23T15:59:24;10.30;;;8.07;;
3070;SDS011;1546;47.208;9.038;2022-07-23T16:02:10;8.37;;;7.47;;
3070;SDS011;1546;47.208;9.038;2022-07-23T16:04:55;8.90;;;7.43;;
3070;SDS011;1546;47.208;9.038;2022-07-23T16:07:41;8.90;;;7.70;;
3070;SDS011;1546;47.208;9.038;2022-07-23T16:10:28;9.03;;;8.10;;
3070;SDS011;1546;47.208;9.038;2022-07-23T16:13:14;8.90;;;7.70;;
3070;SDS011;1546;47.208;9.038;2022-07-23T16:16:00;9.13;;;8.20;;
3070;SDS011;1546;47.208;9.038;2022-07-23T16:18:46;9.00;;;7.90;;
3070;SDS011;1546;47.208;9.038;2022-07-23T16:21:34;9.83;;;7.93;;
3070;SDS011;1546;47.208;9.038;2022-07-23T16:24:20;9.67;;;8.20;;
3070;SDS011;1546;47.208;9.038;2022-07-23T16:27:07;9.40;;;7.20;;
3070;SDS011;1546;47.208;9.038;2022-07-23T16:29:52;8.10;;;7.33;;
3070;SDS011;1546;47.208;9.038;2022-07-23T16:32:38;9.20;;;8.00;;
3070;SDS011;1546;47.208;9.038;2022-07-23T16:35:24;10.27;;;8.03;;
3070;SDS011;1546;47.208;9.038;2022-07-23T16:38:09;9.17;;;8.10;;
3070;SDS011;1546;47.208;9.038;2022-07-23T16:40:55;11.30;;;8.73;;
3070;SDS011;1546;47.208;9.038;2022-07-23T16:43:42;10.93;;;8.90;;
3070;SDS011;1546;47.208;9.038;2022-07-23T16:46:28;8.90;;;7.70;;
3070;SDS011;1546;47.208;9.038;2022-07-23T16:49:13;8.37;;;7.50;;
3070;SDS011;1546;47.208;9.038;2022-07-23T16:51:59;9.70;;;8.33;;
3070;SDS011;1546;47.208;9.038;2022-07-23T16:54:44;10.10;;;8.30;;
3070;SDS011;1546;47.208;9.038;2022-07-23T16:57:30;9.93;;;8.93;;
3070;SDS011;1546;47.208;9.038;2022-07-23T17:00:17;9.77;;;8.73;;
3070;SDS011;1546;47.208;9.038;2022-07-23T17:03:03;9.33;;;8.33;;
3070;SDS011;1546;47.208;9.038;2022-07-23T17:05:48;10.20;;;8.23;;
3070;SDS011;1546;47.208;9.038;2022-07-23T17:08:34;10.83;;;7.73;;
3070;SDS011;1546;47.208;9.038;2022-07-23T17:11:20;11.60;;;9.10;;
3070;SDS011;1546;47.208;9.038;2022-07-23T17:14:06;16.00;;;8.13;;
3070;SDS011;1546;47.208;9.038;2022-07-23T17:16:53;9.80;;;8.50;;
3070;SDS011;1546;47.208;9.038;2022-07-23T17:19:38;9.40;;;7.90;;
3070;SDS011;1546;47.208;9.038;2022-07-23T17:22:24;8.43;;;7.63;;